createdAt,value
2017-11-08T00:00:35.329Z,100076.57
2017-11-08T00:03:01.267Z,100085.39
2017-11-08T00:05:27.210Z,100082.11
2017-11-08T00:07:53.161Z,100074.80
2017-11-08T00:10:19.110Z,100068.09
2017-11-08T00:12:45.049Z,100074.63
2017-11-08T00:15:10.999Z,100070.64
2017-11-08T00:17:36.933Z,100070.63
2017-11-08T00:20:02.872Z,100071.44
2017-11-08T00:22:28.823Z,100068.33
2017-11-08T00:24:54.789Z,100078.27
2017-11-08T00:27:20.732Z,100086.34
2017-11-08T00:29:46.677Z,100082.52
2017-11-08T00:32:12.647Z,100080.59
2017-11-08T00:34:38.580Z,100063.01
2017-11-08T00:37:04.529Z,100059.00
2017-11-08T00:39:30.495Z,100050.19
2017-11-08T00:41:56.425Z,100048.59
2017-11-08T00:44:22.363Z,100048.05
2017-11-08T00:46:48.316Z,100055.02
2017-11-08T00:49:14.259Z,100046.17
2017-11-08T00:51:40.191Z,100048.96
2017-11-08T00:54:06.147Z,100051.93
2017-11-08T00:56:32.099Z,100043.66
2017-11-08T00:58:58.136Z,100038.95
2017-11-08T01:01:24.067Z,100033.37
2017-11-08T01:03:50.018Z,100032.59
2017-11-08T01:06:15.955Z,100029.03
2017-11-08T01:08:41.902Z,100031.48
2017-11-08T01:11:07.831Z,100031.17
2017-11-08T01:13:33.764Z,100036.16
2017-11-08T01:15:59.687Z,100027.77
2017-11-08T01:18:25.619Z,100025.71
2017-11-08T01:20:51.567Z,100025.22
2017-11-08T01:23:17.505Z,100018.83
2017-11-08T01:25:43.489Z,100016.20
2017-11-08T01:28:09.431Z,100025.56
2017-11-08T01:30:35.398Z,100018.62
2017-11-08T01:33:01.331Z,100014.87
2017-11-08T01:35:27.269Z,100014.20
2017-11-08T01:37:53.220Z,100007.70
2017-11-08T01:40:19.184Z,100020.31
2017-11-08T01:42:45.141Z,100022.06
2017-11-08T01:45:11.157Z,100024.97
2017-11-08T01:47:37.094Z,100028.05
2017-11-08T01:50:03.064Z,100026.34
2017-11-08T01:52:29.015Z,100027.55
2017-11-08T01:54:54.969Z,100023.19
2017-11-08T01:57:20.910Z,100024.32
2017-11-08T01:59:46.853Z,100022.71
2017-11-08T02:02:12.815Z,100019.48
2017-11-08T02:04:38.809Z,100020.83
2017-11-08T02:07:04.731Z,100015.66
2017-11-08T02:09:30.663Z,100015.96
2017-11-08T02:11:56.607Z,100011.30
2017-11-08T02:14:22.527Z,100012.95
2017-11-08T02:16:48.475Z,100011.77
2017-11-08T02:19:14.412Z,100010.45
2017-11-08T02:21:40.360Z,100020.19
2017-11-08T02:24:06.303Z,100014.31
2017-11-08T02:26:32.257Z,100011.61
2017-11-08T02:28:58.192Z,100014.83
2017-11-08T02:31:24.142Z,100015.62
2017-11-08T02:33:50.107Z,100025.48
2017-11-08T02:36:16.053Z,100027.69
2017-11-08T02:38:41.998Z,100019.51
2017-11-08T02:41:07.986Z,100018.84
2017-11-08T02:43:33.941Z,100018.27
2017-11-08T02:45:59.889Z,100020.95
2017-11-08T02:48:25.829Z,100004.34
2017-11-08T02:50:51.775Z,100008.22
2017-11-08T02:53:17.754Z,100012.63
2017-11-08T02:55:43.687Z,100015.01
2017-11-08T02:58:09.601Z,100019.33
2017-11-08T03:00:35.570Z,100014.89
2017-11-08T03:03:01.497Z,100017.59
2017-11-08T03:05:27.425Z,100014.34
2017-11-08T03:07:53.359Z,100012.53
2017-11-08T03:10:19.295Z,100015.86
2017-11-08T03:12:45.253Z,100001.61
2017-11-08T03:15:11.200Z,100006.02
2017-11-08T03:17:37.141Z,100004.67
2017-11-08T03:20:03.112Z,100008.02
2017-11-08T03:22:29.063Z,100012.21
2017-11-08T03:24:54.997Z,100019.55
2017-11-08T03:27:20.936Z,100010.44
2017-11-08T03:29:46.919Z,100011.73
2017-11-08T03:32:12.867Z,100008.34
2017-11-08T03:34:38.811Z,100017.06
2017-11-08T03:37:04.795Z,100021.47
2017-11-08T03:39:30.755Z,100020.31
2017-11-08T03:41:56.699Z,100004.39
2017-11-08T03:44:22.644Z,100025.76
2017-11-08T03:46:48.603Z,100027.93
2017-11-08T03:49:14.573Z,100030.84
2017-11-08T03:51:40.508Z,100026.06
2017-11-08T03:54:06.442Z,100027.64
2017-11-08T03:56:32.371Z,100034.02
2017-11-08T03:58:58.307Z,100031.95
2017-11-08T04:01:24.328Z,100035.61
2017-11-08T04:03:50.267Z,100031.50
2017-11-08T04:06:16.209Z,100029.70
2017-11-08T04:08:42.175Z,100023.70
2017-11-08T04:11:08.129Z,100023.16
2017-11-08T04:13:34.088Z,100011.03
2017-11-08T04:16:00.021Z,100009.86
2017-11-08T04:18:25.971Z,100013.75
2017-11-08T04:20:51.953Z,100010.15
2017-11-08T04:23:17.885Z,100010.42
2017-11-08T04:25:43.913Z,100014.67
2017-11-08T04:28:09.895Z,100007.59
2017-11-08T04:30:35.827Z,100009.80
2017-11-08T04:33:01.787Z,100004.08
2017-11-08T04:35:27.793Z,100007.39
2017-11-08T04:37:53.733Z,100006.78
2017-11-08T04:40:19.711Z,100007.95
2017-11-08T04:42:45.639Z,100008.30
2017-11-08T04:45:11.579Z,100002.37
2017-11-08T04:47:37.519Z,100005.66
2017-11-08T04:50:03.457Z,100002.55
2017-11-08T04:52:29.422Z,100004.45
2017-11-08T04:54:55.411Z,100011.70
2017-11-08T04:57:21.385Z,100012.23
2017-11-08T04:59:47.317Z,100009.36
2017-11-08T05:02:13.273Z,100023.92
2017-11-08T05:04:39.243Z,100029.21
2017-11-08T05:07:05.397Z,100027.90
2017-11-08T05:09:31.341Z,100021.97
2017-11-08T05:11:57.304Z,100018.62
2017-11-08T05:14:23.263Z,100014.34
2017-11-08T05:16:49.200Z,100023.17
2017-11-08T05:19:15.155Z,100025.97
2017-11-08T05:21:41.115Z,100025.81
2017-11-08T05:24:07.175Z,100031.08
2017-11-08T05:26:33.111Z,100036.75
2017-11-08T05:28:59.103Z,100034.00
2017-11-08T05:31:25.159Z,100034.16
2017-11-08T05:33:51.099Z,100032.71
2017-11-08T05:36:17.067Z,100032.74
2017-11-08T05:38:43.021Z,100033.03
2017-11-08T05:41:09.011Z,100024.75
2017-11-08T05:43:35.038Z,100017.87
2017-11-08T05:46:01.098Z,100017.42
2017-11-08T05:48:27.031Z,100032.28
2017-11-08T05:50:52.975Z,100034.30
2017-11-08T05:53:18.913Z,100037.28
2017-11-08T05:55:44.856Z,100041.16
2017-11-08T05:58:10.822Z,100040.81
2017-11-08T06:00:36.761Z,100041.80
2017-11-08T06:03:02.717Z,100041.10
2017-11-08T06:05:29.419Z,100044.52
2017-11-08T06:07:55.381Z,100044.64
2017-11-08T06:10:21.321Z,100032.95
2017-11-08T06:12:47.274Z,100041.15
2017-11-08T06:15:13.226Z,100038.83
2017-11-08T06:17:39.157Z,100039.84
2017-11-08T06:20:05.087Z,100038.45
2017-11-08T06:22:31.083Z,100048.59
2017-11-08T06:24:57.052Z,100051.25
2017-11-08T06:27:23.064Z,100051.19
2017-11-08T06:29:49.099Z,100061.08
2017-11-08T06:32:15.055Z,100060.02
2017-11-08T06:34:41.011Z,100070.38
2017-11-08T06:37:06.975Z,100070.72
2017-11-08T06:39:32.898Z,100067.92
2017-11-08T06:41:58.846Z,100084.31
2017-11-08T06:44:24.802Z,100075.69
2017-11-08T06:46:50.793Z,100067.89
2017-11-08T06:49:16.769Z,100080.70
2017-11-08T06:51:42.734Z,100075.89
2017-11-08T06:54:08.755Z,100075.03
2017-11-08T06:56:34.729Z,100077.63
2017-11-08T06:59:00.685Z,100075.48
2017-11-08T07:01:26.913Z,100070.66
2017-11-08T07:03:52.861Z,100074.66
2017-11-08T07:06:18.783Z,100076.38
2017-11-08T07:08:44.795Z,100069.55
2017-11-08T07:11:10.753Z,100068.84
2017-11-08T07:13:36.717Z,100070.58
2017-11-08T07:16:02.659Z,100066.41
2017-11-08T07:18:28.636Z,100074.31
2017-11-08T07:20:54.568Z,100067.97
2017-11-08T07:23:20.517Z,100066.13
2017-11-08T07:25:46.467Z,100071.48
2017-11-08T07:28:12.403Z,100079.10
2017-11-08T07:30:38.350Z,100079.69
2017-11-08T07:33:04.295Z,100073.45
2017-11-08T07:35:30.254Z,100069.95
2017-11-08T07:37:56.203Z,100067.58
2017-11-08T07:40:22.173Z,100071.59
2017-11-08T07:42:48.131Z,100078.03
2017-11-08T07:45:14.106Z,100082.61
2017-11-08T07:47:40.111Z,100079.92
2017-11-08T07:50:06.067Z,100084.61
2017-11-08T07:52:32.015Z,100084.27
2017-11-08T07:54:57.960Z,100087.20
2017-11-08T07:57:24.002Z,100088.91
2017-11-08T07:59:49.966Z,100080.53
2017-11-08T08:02:15.947Z,100092.41
2017-11-08T08:04:41.906Z,100088.81
2017-11-08T08:07:07.844Z,100083.62
2017-11-08T08:09:33.782Z,100086.08
2017-11-08T08:11:59.721Z,100072.58
2017-11-08T08:14:25.667Z,100074.42
2017-11-08T08:16:51.615Z,100073.30
2017-11-08T08:19:17.629Z,100075.16
2017-11-08T08:21:43.571Z,100076.38
2017-11-08T08:24:09.557Z,100072.59
2017-11-08T08:26:35.513Z,100063.18
2017-11-08T08:29:01.453Z,100073.75
2017-11-08T08:31:27.438Z,100075.78
2017-11-08T08:33:53.399Z,100077.51
2017-11-08T08:36:19.363Z,100073.72
2017-11-08T08:38:45.355Z,100070.27
2017-11-08T08:41:11.353Z,100079.88
2017-11-08T08:43:37.284Z,100086.88
2017-11-08T08:46:03.233Z,100081.60
2017-11-08T08:48:29.199Z,100077.64
2017-11-08T08:50:55.151Z,100079.34
2017-11-08T08:53:21.099Z,100077.68
2017-11-08T08:55:47.050Z,100070.61
2017-11-08T08:58:13.002Z,100090.38
2017-11-08T09:00:38.949Z,100095.52
2017-11-08T09:03:04.901Z,100094.82
2017-11-08T09:05:30.864Z,100097.52
2017-11-08T09:07:56.840Z,100104.87
2017-11-08T09:10:22.806Z,100111.80
2017-11-08T09:12:48.771Z,100106.88
2017-11-08T09:15:14.727Z,100100.63
2017-11-08T09:17:40.675Z,100103.17
2017-11-08T09:20:06.613Z,100095.48
2017-11-08T09:22:32.614Z,100104.27
2017-11-08T09:24:58.749Z,100103.92
2017-11-08T09:27:24.722Z,100102.67
2017-11-08T09:29:50.709Z,100103.69
2017-11-08T09:32:16.665Z,100093.16
2017-11-08T09:34:42.627Z,100098.24
2017-11-08T09:37:08.581Z,100096.59
2017-11-08T09:39:34.514Z,100094.22
2017-11-08T09:42:00.451Z,100098.01
2017-11-08T09:44:26.415Z,100103.49
2017-11-08T09:46:52.396Z,100099.30
2017-11-08T09:49:18.345Z,100094.80
2017-11-08T09:51:44.325Z,100094.06
2017-11-08T09:54:10.279Z,100090.66
2017-11-08T09:56:36.233Z,100093.97
2017-11-08T09:59:02.188Z,100094.67
2017-11-08T10:01:28.135Z,100093.53
2017-11-08T10:03:54.121Z,100092.75
2017-11-08T10:06:20.103Z,100091.14
2017-11-08T10:08:46.043Z,100088.58
2017-11-08T10:11:12.009Z,100087.80
2017-11-08T10:13:38.038Z,100091.13
2017-11-08T10:16:03.953Z,100086.08
2017-11-08T10:18:29.959Z,100085.99
2017-11-08T10:20:55.903Z,100086.87
2017-11-08T10:23:21.827Z,100084.81
2017-11-08T10:25:47.782Z,100081.47
2017-11-08T10:28:13.740Z,100080.60
2017-11-08T10:30:39.691Z,100087.72
2017-11-08T10:33:05.633Z,100082.68
2017-11-08T10:35:31.577Z,100081.03
2017-11-08T10:37:57.579Z,100072.66
2017-11-08T10:40:23.559Z,100083.09
2017-11-08T10:42:49.486Z,100077.25
2017-11-08T10:45:15.479Z,100074.40
2017-11-08T10:47:41.439Z,100075.23
2017-11-08T10:50:07.397Z,100077.73
2017-11-08T10:52:33.359Z,100076.84
2017-11-08T10:54:59.327Z,100074.72
2017-11-08T10:57:25.338Z,100070.98
2017-11-08T10:59:51.318Z,100076.48
2017-11-08T11:02:17.258Z,100081.09
2017-11-08T11:04:43.231Z,100080.81
2017-11-08T11:07:09.189Z,100085.41
2017-11-08T11:09:35.151Z,100082.08
2017-11-08T11:12:01.098Z,100085.89
2017-11-08T11:14:27.045Z,100086.74
2017-11-08T11:16:53.070Z,100088.03
2017-11-08T11:19:19.045Z,100087.19
2017-11-08T11:21:45.015Z,100083.00
2017-11-08T11:24:10.963Z,100085.47
2017-11-08T11:26:36.957Z,100085.96
2017-11-08T11:29:02.950Z,100089.73
2017-11-08T11:31:28.915Z,100086.45
2017-11-08T11:33:54.911Z,100083.47
2017-11-08T11:36:20.870Z,100082.25
2017-11-08T11:38:46.857Z,100085.63
2017-11-08T11:41:12.830Z,100086.92
2017-11-08T11:43:38.850Z,100086.48
2017-11-08T11:46:04.838Z,100092.01
2017-11-08T11:48:30.828Z,100089.06
2017-11-08T11:50:56.780Z,100090.78
2017-11-08T11:53:22.729Z,100084.91
2017-11-08T11:55:48.664Z,100081.13
2017-11-08T11:58:14.605Z,100073.17
2017-11-08T12:00:40.578Z,100073.17
2017-11-08T12:03:06.603Z,100078.69
2017-11-08T12:05:35.805Z,100077.38
2017-11-08T12:08:02.005Z,100076.98
2017-11-08T12:10:27.964Z,100080.33
2017-11-08T12:12:53.912Z,100084.56
2017-11-08T12:15:19.916Z,100078.27
2017-11-08T12:17:45.909Z,100078.24
2017-11-08T12:20:11.869Z,100079.53
2017-11-08T12:22:37.851Z,100077.84
2017-11-08T12:25:03.826Z,100074.04
2017-11-08T12:27:29.857Z,100077.78
2017-11-08T12:29:55.881Z,100073.55
2017-11-08T12:32:21.928Z,100072.27
2017-11-08T12:34:47.890Z,100083.22
2017-11-08T12:37:13.909Z,100076.95
2017-11-08T12:39:39.883Z,100082.88
2017-11-08T12:42:05.887Z,100089.58
2017-11-08T12:44:31.838Z,100088.67
2017-11-08T12:46:57.820Z,100087.84
2017-11-08T12:49:23.785Z,100079.86
2017-11-08T12:51:49.743Z,100084.48
2017-11-08T12:54:15.725Z,100082.80
2017-11-08T12:56:41.772Z,100084.44
2017-11-08T12:59:07.764Z,100086.14
2017-11-08T13:01:33.724Z,100086.96
2017-11-08T13:03:59.684Z,100091.19
2017-11-08T13:06:26.172Z,100091.56
2017-11-08T13:08:52.126Z,100090.27
2017-11-08T13:11:18.147Z,100084.78
2017-11-08T13:13:44.147Z,100089.38
2017-11-08T13:16:10.208Z,100092.75
2017-11-08T13:18:36.151Z,100094.07
2017-11-08T13:21:02.143Z,100085.54
2017-11-08T13:23:28.149Z,100092.38
2017-11-08T13:25:54.157Z,100087.34
2017-11-08T13:28:20.126Z,100088.20
2017-11-08T13:30:46.072Z,100098.72
2017-11-08T13:33:12.066Z,100105.47
2017-11-08T13:35:38.023Z,100105.94
2017-11-08T13:38:03.998Z,100104.27
2017-11-08T13:40:29.994Z,100099.19
2017-11-08T13:42:55.952Z,100102.89
2017-11-08T13:45:21.902Z,100102.56
2017-11-08T13:47:47.900Z,100097.87
2017-11-08T13:50:13.839Z,100110.09
2017-11-08T13:52:39.821Z,100106.67
2017-11-08T13:55:05.746Z,100111.70
2017-11-08T13:57:31.711Z,100105.44
2017-11-08T13:59:57.670Z,100103.27
2017-11-08T14:02:23.700Z,100103.31
2017-11-08T14:04:49.727Z,100092.39
2017-11-08T14:07:15.721Z,100098.32
2017-11-08T14:09:41.681Z,100087.40
2017-11-08T14:12:07.678Z,100092.89
2017-11-08T14:14:33.709Z,100095.73
2017-11-08T14:16:59.659Z,100097.00
2017-11-08T14:19:25.666Z,100091.61
2017-11-08T14:21:51.656Z,100094.55
2017-11-08T14:24:17.617Z,100092.91
2017-11-08T14:26:43.622Z,100095.34
2017-11-08T14:29:09.618Z,100090.20
2017-11-08T14:31:35.562Z,100097.84
2017-11-08T14:34:01.524Z,100096.59
2017-11-08T14:36:27.509Z,100100.38
2017-11-08T14:38:53.510Z,100102.50
2017-11-08T14:41:19.557Z,100108.41
2017-11-08T14:43:45.496Z,100111.68
2017-11-08T14:46:11.467Z,100108.34
2017-11-08T14:48:37.480Z,100101.94
2017-11-08T14:51:03.480Z,100104.13
2017-11-08T14:53:29.652Z,100114.25
2017-11-08T14:55:55.606Z,100112.09
2017-11-08T14:58:21.581Z,100120.11
2017-11-08T15:00:47.526Z,100127.55
2017-11-08T15:03:13.496Z,100130.60
2017-11-08T15:05:39.505Z,100131.28
2017-11-08T15:08:05.443Z,100138.35
2017-11-08T15:10:31.418Z,100137.13
2017-11-08T15:12:57.368Z,100137.05
2017-11-08T15:15:23.353Z,100142.52
2017-11-08T15:17:49.310Z,100141.79
2017-11-08T15:20:15.244Z,100138.38
2017-11-08T15:22:41.240Z,100134.52
2017-11-08T15:25:07.191Z,100134.91
2017-11-08T15:27:33.192Z,100140.00
2017-11-08T15:29:59.159Z,100137.47
2017-11-08T15:32:25.141Z,100140.81
2017-11-08T15:34:51.157Z,100133.09
2017-11-08T15:37:17.109Z,100129.88
2017-11-08T15:39:43.038Z,100144.64
2017-11-08T15:42:08.997Z,100152.14
2017-11-08T15:44:34.941Z,100150.78
2017-11-08T15:47:00.895Z,100146.66
2017-11-08T15:49:26.831Z,100142.09
2017-11-08T15:51:52.809Z,100144.54
2017-11-08T15:54:18.795Z,100143.73
2017-11-08T15:56:44.841Z,100151.20
2017-11-08T15:59:10.833Z,100159.66
2017-11-08T16:01:36.849Z,100147.89
2017-11-08T16:04:02.823Z,100152.14
2017-11-08T16:06:28.826Z,100150.75
2017-11-08T16:08:54.765Z,100151.57
2017-11-08T16:11:20.703Z,100160.05
2017-11-08T16:13:46.663Z,100172.31
2017-11-08T16:16:12.643Z,100173.45
2017-11-08T16:18:38.600Z,100175.80
2017-11-08T16:21:05.457Z,100163.28
2017-11-08T16:23:31.414Z,100158.67
2017-11-08T16:25:57.538Z,100160.09
2017-11-08T16:28:23.527Z,100168.58
2017-11-08T16:30:49.470Z,100180.63
2017-11-08T16:33:15.431Z,100177.47
2017-11-08T16:35:41.384Z,100164.17
2017-11-08T16:38:07.404Z,100165.34
2017-11-08T16:40:33.360Z,100170.73
2017-11-08T16:42:59.311Z,100177.48
2017-11-08T16:45:25.242Z,100182.73
2017-11-08T16:47:51.194Z,100177.66
2017-11-08T16:50:17.197Z,100179.62
2017-11-08T16:52:43.182Z,100178.05
2017-11-08T16:55:09.184Z,100171.03
2017-11-08T16:57:36.045Z,100175.58
2017-11-08T17:00:01.996Z,100171.19
2017-11-08T17:02:27.947Z,100174.80
2017-11-08T17:04:53.918Z,100178.22
2017-11-08T17:07:20.096Z,100172.87
2017-11-08T17:09:46.074Z,100166.15
2017-11-08T17:12:14.136Z,100161.90
2017-11-08T17:14:40.113Z,100159.31
2017-11-08T17:17:06.089Z,100169.58
2017-11-08T17:19:34.156Z,100170.49
2017-11-08T17:22:00.102Z,100166.33
2017-11-08T17:24:26.061Z,100165.03
2017-11-08T17:26:52.023Z,100168.41
2017-11-08T17:29:18.001Z,100169.70
2017-11-08T17:31:43.968Z,100166.60
2017-11-08T17:34:09.948Z,100172.24
2017-11-08T17:36:36.528Z,100179.27
2017-11-08T17:39:02.484Z,100181.78
2017-11-08T17:41:28.435Z,100185.14
2017-11-08T17:43:54.453Z,100186.09
2017-11-08T17:46:20.384Z,100193.01
2017-11-08T17:48:46.333Z,100187.98
2017-11-08T17:51:12.285Z,100185.84
2017-11-08T17:56:09.869Z,100184.31
2017-11-08T17:58:35.922Z,100193.55
2017-11-08T18:01:01.863Z,100193.34
2017-11-08T18:03:27.866Z,100202.36
2017-11-08T18:05:54.920Z,100207.36
2017-11-08T18:08:20.917Z,100206.78
2017-11-08T18:10:46.900Z,100204.12
2017-11-08T18:13:12.916Z,100203.14
2017-11-08T18:15:38.905Z,100204.81
2017-11-08T18:18:04.886Z,100202.53
2017-11-08T18:20:30.824Z,100205.98
2017-11-08T18:22:56.781Z,100204.77
2017-11-08T18:25:22.768Z,100202.75
2017-11-08T18:27:48.708Z,100207.15
2017-11-08T18:30:14.650Z,100206.66
2017-11-08T18:35:15.091Z,100213.87
2017-11-08T18:37:41.164Z,100217.61
2017-11-08T18:40:07.115Z,100218.43
2017-11-08T18:42:33.061Z,100216.22
2017-11-08T18:44:59.016Z,100214.09
2017-11-08T18:47:24.973Z,100210.93
2017-11-08T18:49:50.967Z,100218.10
2017-11-08T18:52:16.922Z,100214.24
2017-11-08T18:54:42.921Z,100214.42
2017-11-08T18:57:09.111Z,100208.52
2017-11-08T18:59:35.057Z,100212.46
2017-11-08T19:02:01.030Z,100214.22
2017-11-08T19:04:26.969Z,100220.92
2017-11-08T19:06:52.943Z,100225.06
2017-11-08T19:09:18.947Z,100225.02
2017-11-08T19:11:44.902Z,100222.45
2017-11-08T19:14:10.844Z,100222.88
2017-11-08T19:16:36.786Z,100223.80
2017-11-08T19:19:02.718Z,100233.50
2017-11-08T19:21:29.597Z,100238.73
2017-11-08T19:23:55.613Z,100234.89
2017-11-08T19:26:21.553Z,100228.62
2017-11-08T19:28:47.557Z,100234.47
2017-11-08T19:31:13.518Z,100241.12
2017-11-08T19:33:39.522Z,100244.80
2017-11-08T19:36:05.481Z,100245.06
2017-11-08T19:38:31.462Z,100242.36
2017-11-08T19:40:57.449Z,100243.90
2017-11-08T19:43:23.408Z,100244.80
2017-11-08T19:45:49.392Z,100255.77
2017-11-08T19:48:15.341Z,100253.55
2017-11-08T19:50:41.335Z,100253.97
2017-11-08T19:53:07.808Z,100249.80
2017-11-08T19:55:33.926Z,100250.31
2017-11-08T19:57:59.908Z,100249.15
2017-11-08T20:00:25.931Z,100247.72
2017-11-08T20:02:51.870Z,100240.02
2017-11-08T20:05:17.841Z,100240.19
2017-11-08T20:07:43.796Z,100235.52
2017-11-08T20:10:09.795Z,100235.80
2017-11-08T20:12:35.877Z,100236.13
2017-11-08T20:15:01.882Z,100235.70
2017-11-08T20:17:27.842Z,100230.23
2017-11-08T20:19:53.814Z,100234.64
2017-11-08T20:22:19.794Z,100235.00
2017-11-08T20:24:45.756Z,100235.89
2017-11-08T20:27:11.725Z,100236.66
2017-11-08T20:29:37.770Z,100235.48
2017-11-08T20:32:03.723Z,100236.92
2017-11-08T20:34:29.671Z,100239.58
2017-11-08T20:36:55.716Z,100241.09
2017-11-08T20:39:21.699Z,100241.21
2017-11-08T20:41:47.658Z,100245.52
2017-11-08T20:44:13.611Z,100244.09
2017-11-08T20:46:39.576Z,100250.39
2017-11-08T20:49:05.634Z,100259.00
2017-11-08T20:51:31.581Z,100254.27
2017-11-08T20:53:57.552Z,100255.20
2017-11-08T20:56:24.588Z,100254.25
2017-11-08T20:58:50.646Z,100249.86
2017-11-08T21:01:16.729Z,100254.95
2017-11-08T21:03:44.798Z,100252.93
2017-11-08T21:06:12.823Z,100249.47
2017-11-08T21:08:40.445Z,100249.36
2017-11-08T21:11:07.289Z,100247.88
2017-11-08T21:13:33.515Z,100251.06
2017-11-08T21:16:00.694Z,100255.12
2017-11-08T21:18:26.657Z,100257.20
2017-11-08T21:20:52.619Z,100261.53
2017-11-08T21:23:18.689Z,100261.55
2017-11-08T21:25:44.701Z,100259.86
2017-11-08T21:28:10.663Z,100260.70
2017-11-08T21:30:37.007Z,100260.27
2017-11-08T21:33:03.449Z,100256.34
2017-11-08T21:42:16.815Z,100257.77
2017-11-08T21:44:42.939Z,100258.04
2017-11-08T21:47:08.918Z,100255.66
2017-11-08T21:49:34.867Z,100259.50
2017-11-08T21:52:00.809Z,100257.08
2017-11-08T21:54:26.765Z,100257.68
2017-11-08T21:56:52.708Z,100263.86
2017-11-08T21:59:18.670Z,100261.13
2017-11-08T22:01:44.722Z,100261.74
2017-11-08T22:04:10.683Z,100265.14
2017-11-08T22:06:36.654Z,100260.97
2017-11-08T22:09:02.605Z,100259.84
2017-11-08T22:11:28.553Z,100266.81
2017-11-08T22:13:54.501Z,100267.05
2017-11-08T22:16:20.453Z,100274.19
2017-11-08T22:18:46.422Z,100272.70
2017-11-08T22:21:14.380Z,100266.45
2017-11-08T22:23:40.384Z,100273.11
2017-11-08T22:26:06.349Z,100270.63
2017-11-08T22:28:32.346Z,100274.25
2017-11-08T22:30:58.337Z,100272.91
2017-11-08T22:33:24.287Z,100268.95
2017-11-08T22:35:50.241Z,100270.16
2017-11-08T22:38:16.205Z,100272.98
2017-11-08T22:40:42.155Z,100269.48
2017-11-08T22:43:08.135Z,100272.76
2017-11-08T22:45:34.097Z,100265.50
2017-11-08T22:48:00.053Z,100270.42
2017-11-08T22:50:26.018Z,100270.72
2017-11-08T22:52:51.957Z,100265.99
2017-11-08T22:55:17.904Z,100265.55
2017-11-08T22:57:43.883Z,100258.33
2017-11-08T23:00:09.841Z,100257.45
2017-11-08T23:02:35.806Z,100255.33
2017-11-08T23:05:01.771Z,100256.80
2017-11-08T23:07:27.759Z,100253.02
2017-11-08T23:09:53.745Z,100241.98
2017-11-08T23:12:20.842Z,100243.05
2017-11-08T23:14:47.673Z,100245.77
2017-11-08T23:17:13.619Z,100245.77
2017-11-08T23:19:39.543Z,100246.22
2017-11-08T23:22:05.501Z,100243.80
2017-11-08T23:24:31.447Z,100244.11
2017-11-08T23:26:57.424Z,100251.00
2017-11-08T23:29:23.367Z,100252.72
2017-11-08T23:31:49.318Z,100261.48
2017-11-08T23:34:15.291Z,100251.56
2017-11-08T23:36:41.243Z,100259.06
2017-11-08T23:39:07.194Z,100254.63
2017-11-08T23:41:33.237Z,100257.97
2017-11-08T23:43:59.269Z,100258.27
2017-11-08T23:46:25.236Z,100262.11
2017-11-08T23:48:51.211Z,100266.64
2017-11-08T23:51:17.157Z,100262.86
2017-11-08T23:53:43.157Z,100264.28
2017-11-08T23:56:09.096Z,100266.46
2017-11-08T23:58:35.153Z,100262.54
